Time;durP1;ratioP1;P1;durP2;ratioP2;P2;SDS_P1;SDS_P2;PMS_P1;PMS_P2;Temp;Humidity;BMP_temperature;BMP_pressure;BME280_temperature;BME280_humidity;BME280_pressure;Samples;Min_cycle;Max_cycle;Signal;HPM_P1;HPM_P2
2022/01/29 00:00:54;;;;;;;6.30;3.07;;;3.90;99.90;;;;;;5031556;28;20417;-73
2022/01/29 00:03:20;;;;;;;2.20;1.90;;;3.90;99.90;;;;;;5031686;28;20201;-73
2022/01/29 00:05:46;;;;;;;1.43;1.13;;;3.90;99.90;;;;;;5030461;28;20419;-72
2022/01/29 00:08:11;;;;;;;1.70;1.10;;;3.90;99.90;;;;;;5031634;28;20588;-72
2022/01/29 00:10:37;;;;;;;8.03;2.20;;;3.90;99.90;;;;;;5031487;28;20331;-74
2022/01/29 00:13:02;;;;;;;3.27;1.63;;;3.90;99.90;;;;;;5031521;28;20171;-74
2022/01/29 00:15:28;;;;;;;0.90;0.90;;;3.90;99.90;;;;;;5031321;28;20203;-72
2022/01/29 00:17:53;;;;;;;2.80;1.63;;;3.90;99.90;;;;;;5031339;28;20191;-73
2022/01/29 00:20:19;;;;;;;2.13;1.13;;;3.90;99.90;;;;;;5031396;28;20176;-73
2022/01/29 00:22:44;;;;;;;8.90;1.53;;;3.90;99.90;;;;;;5031377;28;20176;-74
2022/01/29 00:25:10;;;;;;;3.40;2.17;;;3.90;99.90;;;;;;5031526;28;20172;-73
2022/01/29 00:27:37;;;;;;;2.10;1.30;;;3.90;99.90;;;;;;5031346;28;20204;-72
2022/01/29 00:30:08;;;;;;;2.20;1.87;;;3.90;99.90;;;;;;5031033;28;20458;-73
2022/01/29 00:32:35;;;;;;;2.87;1.40;;;3.90;99.90;;;;;;5031734;28;20399;-73
2022/01/29 00:35:01;;;;;;;2.97;1.67;;;3.90;99.90;;;;;;5031865;28;20422;-74
2022/01/29 00:37:26;;;;;;;1.07;1.03;;;3.80;99.90;;;;;;5031613;28;20807;-73
2022/01/29 00:39:52;;;;;;;2.27;1.20;;;3.80;99.90;;;;;;5031178;28;20421;-73
2022/01/29 00:42:17;;;;;;;1.80;1.30;;;3.90;99.90;;;;;;5031389;28;20180;-72
2022/01/29 00:44:44;;;;;;;1.80;1.20;;;3.90;99.90;;;;;;5031573;28;20183;-72
2022/01/29 00:47:10;;;;;;;2.77;1.27;;;3.90;99.90;;;;;;5031481;28;20426;-72
2022/01/29 00:49:36;;;;;;;1.17;1.07;;;3.90;99.90;;;;;;5031175;28;20805;-72
2022/01/29 00:52:02;;;;;;;4.67;1.47;;;3.90;99.90;;;;;;5032009;28;20425;-72
2022/01/29 00:54:28;;;;;;;2.03;1.10;;;3.90;99.90;;;;;;5034746;28;20638;-73
2022/01/29 00:56:53;;;;;;;1.70;1.60;;;4.00;99.90;;;;;;5034580;28;20501;-73
2022/01/29 00:59:19;;;;;;;2.47;2.00;;;3.90;99.90;;;;;;5034478;28;20550;-72
2022/01/29 01:01:44;;;;;;;4.53;2.10;;;3.90;99.90;;;;;;5033526;28;20259;-73
2022/01/29 01:04:09;;;;;;;2.20;1.73;;;4.00;99.90;;;;;;5034511;28;20191;-73
2022/01/29 01:06:35;;;;;;;9.10;1.87;;;4.00;99.90;;;;;;5034519;28;20179;-74
2022/01/29 01:09:00;;;;;;;2.20;1.10;;;4.00;99.90;;;;;;5034272;28;20202;-72
2022/01/29 01:11:26;;;;;;;2.00;1.30;;;4.00;99.90;;;;;;5034533;28;20164;-73
2022/01/29 01:13:51;;;;;;;1.27;1.17;;;4.00;99.90;;;;;;5034457;28;20183;-73
2022/01/29 01:16:17;;;;;;;2.07;1.90;;;4.00;99.90;;;;;;5034442;28;20251;-72
2022/01/29 01:18:42;;;;;;;5.20;2.03;;;4.00;99.90;;;;;;5034503;28;20273;-73
2022/01/29 01:21:08;;;;;;;5.23;2.37;;;4.00;99.90;;;;;;5034407;28;20179;-72
2022/01/29 01:23:33;;;;;;;4.40;1.53;;;4.00;99.90;;;;;;5036253;28;20183;-72
2022/01/29 01:26:01;;;;;;;6.10;1.63;;;4.00;99.90;;;;;;5037591;28;20658;-74
2022/01/29 01:28:27;;;;;;;2.50;2.30;;;4.00;99.90;;;;;;5054594;23;20651;-68
2022/01/29 01:30:53;;;;;;;4.93;1.23;;;4.00;99.90;;;;;;5033401;28;20486;-68
2022/01/29 01:33:18;;;;;;;3.70;1.20;;;4.00;99.90;;;;;;5033699;28;20167;-68
2022/01/29 01:35:48;;;;;;;2.27;1.37;;;4.00;99.90;;;;;;5033355;28;20195;-68
2022/01/29 01:38:25;;;;;;;5.10;2.70;;;4.00;99.90;;;;;;5033430;28;20255;-67
2022/01/29 01:40:55;;;;;;;5.43;2.80;;;4.00;99.90;;;;;;5033139;28;20797;-68
2022/01/29 01:43:21;;;;;;;2.10;1.93;;;4.00;99.90;;;;;;5033371;28;20394;-68
2022/01/29 01:45:46;;;;;;;7.13;2.07;;;4.00;99.90;;;;;;5033092;28;20421;-68
2022/01/29 01:48:12;;;;;;;3.73;1.50;;;4.00;99.90;;;;;;5033014;28;20204;-68
2022/01/29 01:50:37;;;;;;;1.33;0.97;;;4.00;99.90;;;;;;5033119;28;20169;-69
2022/01/29 01:53:05;;;;;;;2.90;2.70;;;4.00;99.90;;;;;;5033499;28;20696;-68
2022/01/29 01:55:31;;;;;;;1.83;1.70;;;4.00;99.90;;;;;;5032755;28;20176;-68
2022/01/29 01:57:57;;;;;;;2.23;1.30;;;4.00;99.90;;;;;;5032868;28;20419;-67
2022/01/29 02:00:27;;;;;;;2.60;1.10;;;4.00;99.90;;;;;;5030361;28;20505;-68
2022/01/29 02:02:52;;;;;;;1.23;1.10;;;4.00;99.90;;;;;;5032403;28;20421;-68
2022/01/29 02:05:18;;;;;;;3.70;1.90;;;3.90;99.90;;;;;;5030341;28;20414;-68
2022/01/29 02:07:45;;;;;;;2.13;1.70;;;3.90;99.90;;;;;;5032685;28;20188;-68
2022/01/29 02:10:12;;;;;;;5.50;1.57;;;3.90;99.90;;;;;;5032347;28;20209;-68
2022/01/29 02:12:48;;;;;;;5.90;1.47;;;3.90;99.90;;;;;;5032702;28;20402;-68
2022/01/29 02:15:15;;;;;;;5.33;1.43;;;3.90;99.90;;;;;;5032662;28;20402;-68
2022/01/29 02:17:41;;;;;;;1.20;1.10;;;3.80;99.90;;;;;;5012745;28;20463;-66
2022/01/29 02:20:07;;;;;;;1.60;1.50;;;3.80;99.90;;;;;;5028532;28;20955;-67
2022/01/29 02:22:32;;;;;;;2.87;1.37;;;3.80;99.90;;;;;;5032367;28;20172;-67
2022/01/29 02:24:58;;;;;;;1.83;1.40;;;3.80;99.90;;;;;;5032457;28;20962;-67
2022/01/29 02:27:23;;;;;;;6.20;1.70;;;3.80;99.90;;;;;;5032171;28;20222;-69
2022/01/29 02:29:49;;;;;;;1.40;1.30;;;3.70;99.90;;;;;;5032170;28;20199;-69
2022/01/29 02:32:15;;;;;;;8.13;2.20;;;3.80;99.90;;;;;;5032068;28;20545;-69
2022/01/29 02:34:43;;;;;;;6.30;2.43;;;3.70;99.90;;;;;;5031859;28;20410;-68
2022/01/29 02:37:09;;;;;;;2.60;1.50;;;3.70;99.90;;;;;;5032088;28;20183;-68
2022/01/29 02:39:35;;;;;;;1.53;1.40;;;3.70;99.90;;;;;;5031919;28;20818;-66
2022/01/29 02:42:00;;;;;;;2.73;2.53;;;3.70;99.90;;;;;;5032033;28;20182;-67
2022/01/29 02:44:26;;;;;;;4.73;2.27;;;3.70;99.90;;;;;;5032056;28;20402;-68
2022/01/29 02:46:54;;;;;;;7.10;1.47;;;3.70;99.90;;;;;;5031991;28;20512;-68
2022/01/29 02:49:22;;;;;;;5.90;1.80;;;3.70;99.90;;;;;;5031816;28;20294;-68
2022/01/29 02:51:53;;;;;;;2.30;1.73;;;3.70;99.90;;;;;;5031864;28;20448;-68
2022/01/29 02:54:20;;;;;;;2.30;1.10;;;3.60;99.90;;;;;;5032040;28;20406;-68
2022/01/29 02:56:47;;;;;;;2.33;2.13;;;3.70;99.90;;;;;;5031803;28;20431;-67
2022/01/29 02:59:13;;;;;;;5.27;1.33;;;3.60;99.90;;;;;;5031648;28;20485;-69
2022/01/29 03:01:38;;;;;;;1.63;1.00;;;3.60;99.90;;;;;;5031590;28;20856;-69
2022/01/29 03:04:05;;;;;;;3.37;1.33;;;3.60;99.90;;;;;;5031817;28;20430;-68
2022/01/29 03:06:30;;;;;;;1.30;1.20;;;3.60;99.90;;;;;;5031713;28;20584;-67
2022/01/29 03:08:57;;;;;;;4.13;1.60;;;3.50;99.90;;;;;;5031484;28;20460;-68
2022/01/29 03:11:22;;;;;;;1.90;1.43;;;3.50;99.90;;;;;;5031581;28;20222;-68
2022/01/29 03:13:49;;;;;;;2.13;2.03;;;3.50;99.90;;;;;;5031615;28;20403;-68
2022/01/29 03:16:15;;;;;;;6.50;2.10;;;3.50;99.90;;;;;;5031085;28;20179;-69
2022/01/29 03:18:41;;;;;;;2.60;2.03;;;3.50;99.90;;;;;;5031499;28;20436;-69
2022/01/29 03:21:07;;;;;;;1.00;1.00;;;3.50;99.90;;;;;;5031455;28;20577;-70
2022/01/29 03:23:32;;;;;;;1.83;1.73;;;3.50;99.90;;;;;;5031686;28;20163;-69
2022/01/29 03:25:58;;;;;;;8.60;1.83;;;3.50;99.90;;;;;;5031465;28;20836;-69
2022/01/29 03:28:23;;;;;;;2.20;1.73;;;3.50;99.90;;;;;;5031220;28;20211;-69
2022/01/29 03:30:49;;;;;;;2.70;1.30;;;3.40;99.90;;;;;;5031454;28;20226;-68
2022/01/29 03:33:14;;;;;;;4.40;1.73;;;3.40;99.90;;;;;;5031394;28;20175;-69
2022/01/29 03:35:39;;;;;;;2.50;1.70;;;3.50;99.90;;;;;;5031566;28;20217;-69
2022/01/29 03:38:05;;;;;;;3.17;2.00;;;3.50;99.90;;;;;;5030081;28;20650;-68
2022/01/29 03:40:32;;;;;;;2.73;1.80;;;3.50;99.90;;;;;;5031578;28;20163;-68
2022/01/29 03:43:10;;;;;;;5.23;2.03;;;3.50;99.90;;;;;;5031335;28;20160;-68
2022/01/29 03:45:36;;;;;;;2.23;1.97;;;3.50;99.90;;;;;;5031395;28;20923;-69
2022/01/29 03:48:03;;;;;;;7.57;2.20;;;3.40;99.90;;;;;;5031245;28;20421;-68
2022/01/29 03:50:29;;;;;;;4.30;2.73;;;3.40;99.90;;;;;;5031354;28;20194;-68
2022/01/29 03:52:55;;;;;;;5.20;2.70;;;3.40;99.90;;;;;;5031352;28;20797;-68
2022/01/29 03:55:20;;;;;;;6.10;3.00;;;3.40;99.90;;;;;;5031591;28;20649;-68
2022/01/29 03:57:46;;;;;;;5.07;1.67;;;3.40;99.90;;;;;;5031489;28;20188;-67
2022/01/29 04:00:12;;;;;;;7.03;2.33;;;3.40;99.90;;;;;;5031407;28;20199;-69
2022/01/29 04:02:38;;;;;;;3.23;2.17;;;3.40;99.90;;;;;;5031091;28;20252;-68
2022/01/29 04:05:03;;;;;;;2.10;1.50;;;3.40;99.90;;;;;;5031059;28;21091;-68
2022/01/29 04:07:29;;;;;;;2.33;2.13;;;3.40;99.90;;;;;;5030898;28;20278;-67
2022/01/29 04:09:55;;;;;;;3.63;2.20;;;3.40;99.90;;;;;;5030886;28;20238;-68
2022/01/29 04:12:21;;;;;;;6.10;2.60;;;3.40;99.90;;;;;;5030892;28;20163;-68
2022/01/29 04:14:46;;;;;;;1.53;1.20;;;3.40;99.90;;;;;;5031129;28;20254;-68
2022/01/29 04:17:12;;;;;;;1.53;1.43;;;3.40;99.90;;;;;;5030839;28;20803;-68
2022/01/29 04:19:38;;;;;;;6.73;3.00;;;3.40;99.90;;;;;;5030841;28;20176;-69
2022/01/29 04:22:05;;;;;;;3.17;2.07;;;3.40;99.90;;;;;;5030771;28;20258;-68
2022/01/29 04:24:31;;;;;;;10.53;2.00;;;3.40;99.90;;;;;;5030772;28;20413;-68
2022/01/29 04:26:58;;;;;;;4.30;3.00;;;3.40;99.90;;;;;;5031640;28;20418;-68
2022/01/29 04:29:24;;;;;;;3.80;3.23;;;3.40;99.90;;;;;;5034247;28;20501;-68
2022/01/29 04:32:10;;;;;;;3.97;2.03;;;3.40;99.90;;;;;;5034759;28;20814;-68
2022/01/29 04:34:35;;;;;;;2.77;2.17;;;3.40;99.90;;;;;;5034586;28;20414;-68
2022/01/29 04:37:01;;;;;;;6.20;3.30;;;3.40;99.90;;;;;;5034631;28;20498;-68
2022/01/29 04:39:26;;;;;;;4.13;2.67;;;3.50;99.90;;;;;;5034296;28;20195;-68
2022/01/29 04:41:52;;;;;;;7.10;2.70;;;3.40;99.90;;;;;;5034356;28;20677;-69
2022/01/29 04:44:17;;;;;;;3.77;2.47;;;3.40;99.90;;;;;;5034286;28;20207;-69
2022/01/29 04:46:43;;;;;;;4.73;2.97;;;3.50;99.90;;;;;;5034398;28;20588;-69
2022/01/29 04:49:09;;;;;;;6.10;2.90;;;3.50;99.90;;;;;;5034367;28;20214;-69
2022/01/29 04:51:35;;;;;;;3.97;3.30;;;3.50;99.90;;;;;;5034262;28;20410;-68
2022/01/29 04:54:00;;;;;;;3.50;3.03;;;3.50;99.90;;;;;;5034002;28;20774;-68
2022/01/29 04:56:25;;;;;;;5.60;2.30;;;3.50;99.90;;;;;;5034202;28;20221;-67
2022/01/29 04:58:51;;;;;;;5.77;4.70;;;3.50;99.90;;;;;;5033878;28;20195;-68
2022/01/29 05:01:16;;;;;;;5.73;2.80;;;3.50;99.90;;;;;;5034131;28;20176;-68
2022/01/29 05:03:42;;;;;;;3.83;3.53;;;3.50;99.90;;;;;;5033925;28;20646;-68
2022/01/29 05:06:10;;;;;;;3.70;3.03;;;3.50;99.90;;;;;;5033985;28;20172;-68
2022/01/29 05:08:39;;;;;;;5.80;3.03;;;3.60;99.90;;;;;;5033576;28;20195;-69
2022/01/29 05:11:06;;;;;;;7.40;2.90;;;3.60;99.90;;;;;;5033789;28;20785;-68
2022/01/29 05:13:33;;;;;;;4.00;2.90;;;3.60;99.90;;;;;;5033920;28;20493;-68
2022/01/29 05:26:57;;;;;;;7.70;4.80;;;3.60;99.90;;;;;;5030308;28;20413;-68
2022/01/29 05:29:23;;;;;;;4.93;2.80;;;3.60;99.90;;;;;;5033228;28;20454;-68
2022/01/29 05:31:51;;;;;;;3.10;2.60;;;3.60;99.90;;;;;;5033459;28;20406;-68
2022/01/29 05:34:18;;;;;;;3.53;3.07;;;3.60;99.90;;;;;;5033353;28;20429;-68
2022/01/29 05:36:43;;;;;;;6.20;3.10;;;3.60;99.90;;;;;;5033566;28;20399;-68
2022/01/29 05:39:09;;;;;;;9.60;3.20;;;3.60;99.90;;;;;;5031499;28;21015;-68
2022/01/29 05:41:34;;;;;;;5.20;4.70;;;3.60;99.90;;;;;;5033394;28;20179;-68
2022/01/29 05:43:59;;;;;;;3.73;2.03;;;3.60;99.90;;;;;;5033288;28;20198;-67
2022/01/29 05:46:25;;;;;;;3.67;2.90;;;3.60;99.90;;;;;;5033369;28;20613;-68
2022/01/29 05:48:50;;;;;;;6.63;2.70;;;3.60;99.90;;;;;;5032912;28;20331;-68
2022/01/29 05:51:16;;;;;;;4.80;3.37;;;3.60;99.90;;;;;;5033213;28;20167;-68
2022/01/29 05:53:41;;;;;;;5.83;3.03;;;3.60;99.90;;;;;;5031716;28;20171;-68
2022/01/29 05:56:07;;;;;;;7.87;3.30;;;3.60;99.90;;;;;;5033941;28;20266;-68
2022/01/29 05:58:33;;;;;;;3.77;2.90;;;3.60;99.90;;;;;;5032929;28;20199;-67
2022/01/29 06:00:59;;;;;;;7.40;3.97;;;3.60;99.90;;;;;;5033004;28;20174;-68
2022/01/29 06:03:25;;;;;;;5.27;4.03;;;3.60;99.90;;;;;;5032538;28;20493;-68
2022/01/29 06:05:50;;;;;;;4.70;3.13;;;3.60;99.90;;;;;;5033284;28;20493;-68
2022/01/29 06:08:16;;;;;;;5.10;3.87;;;3.60;99.90;;;;;;5033123;28;20188;-68
2022/01/29 06:10:41;;;;;;;5.03;3.77;;;3.60;99.90;;;;;;5032581;28;20199;-67
2022/01/29 06:13:09;;;;;;;2.50;2.30;;;3.60;99.90;;;;;;5032907;28;20175;-67
2022/01/29 06:15:43;;;;;;;4.03;2.90;;;3.60;99.90;;;;;;5032878;28;20159;-68
2022/01/29 06:18:13;;;;;;;6.50;3.50;;;3.60;99.90;;;;;;5033372;28;20925;-68
2022/01/29 06:20:39;;;;;;;4.23;3.83;;;3.60;99.90;;;;;;5033165;28;20887;-68
2022/01/29 06:23:04;;;;;;;4.33;3.30;;;3.70;99.90;;;;;;5033448;28;20413;-69
2022/01/29 06:25:30;;;;;;;4.30;3.33;;;3.70;99.90;;;;;;5032945;28;20403;-68
2022/01/29 06:27:55;;;;;;;5.67;2.80;;;3.70;99.90;;;;;;5032503;28;20203;-67
2022/01/29 06:30:21;;;;;;;4.43;3.10;;;3.70;99.90;;;;;;5032270;28;20203;-67
2022/01/29 06:32:46;;;;;;;7.93;3.83;;;3.70;99.90;;;;;;5032252;28;20168;-68
2022/01/29 06:35:12;;;;;;;5.53;4.33;;;3.70;99.90;;;;;;5032227;28;20182;-67
2022/01/29 06:37:38;;;;;;;2.73;2.53;;;3.70;99.90;;;;;;5032172;28;20219;-68
2022/01/29 06:40:05;;;;;;;4.93;3.20;;;3.70;99.90;;;;;;5032048;28;20187;-68
2022/01/29 06:42:30;;;;;;;4.43;4.03;;;3.70;99.90;;;;;;5032127;28;20180;-68
2022/01/29 06:44:56;;;;;;;3.63;2.53;;;3.70;99.90;;;;;;5032097;28;20440;-69
2022/01/29 06:47:21;;;;;;;4.27;3.93;;;3.60;99.90;;;;;;5032151;28;20176;-68
2022/01/29 06:49:47;;;;;;;4.40;2.93;;;3.60;99.90;;;;;;5031179;28;20222;-67
2022/01/29 06:52:13;;;;;;;4.73;3.90;;;3.70;99.90;;;;;;5031981;28;20642;-69
2022/01/29 06:54:38;;;;;;;6.70;3.60;;;3.70;99.90;;;;;;5031819;28;20796;-67
2022/01/29 06:57:04;;;;;;;11.70;4.30;;;3.70;99.90;;;;;;5031739;28;20168;-66
2022/01/29 06:59:29;;;;;;;4.13;3.00;;;3.70;99.90;;;;;;5031918;28;20171;-67
2022/01/29 07:01:55;;;;;;;4.47;3.57;;;3.70;99.90;;;;;;5031843;28;20634;-67
2022/01/29 07:04:20;;;;;;;8.97;3.73;;;3.80;99.90;;;;;;5031780;28;20247;-68
2022/01/29 07:06:46;;;;;;;2.67;2.47;;;3.80;99.90;;;;;;5032019;28;20175;-68
2022/01/29 07:09:11;;;;;;;6.20;4.60;;;3.80;99.90;;;;;;5031403;28;20684;-67
2022/01/29 07:11:37;;;;;;;2.77;2.57;;;3.80;99.90;;;;;;5031624;28;20199;-68
2022/01/29 07:14:03;;;;;;;5.30;3.47;;;3.80;99.90;;;;;;5031457;28;20168;-67
2022/01/29 07:16:31;;;;;;;5.30;4.80;;;3.80;99.90;;;;;;5031665;28;20182;-68
2022/01/29 07:18:56;;;;;;;5.23;4.27;;;3.80;99.90;;;;;;5031537;28;20465;-68
2022/01/29 07:21:22;;;;;;;4.13;3.73;;;3.80;99.90;;;;;;5031413;28;20437;-69
2022/01/29 07:23:48;;;;;;;5.30;3.43;;;3.80;99.90;;;;;;5031437;28;20705;-67
2022/01/29 07:26:13;;;;;;;6.03;3.10;;;3.90;99.90;;;;;;5031274;28;20703;-68
2022/01/29 07:28:39;;;;;;;5.30;3.30;;;3.90;99.90;;;;;;5035732;22;20220;-74
2022/01/29 07:31:05;;;;;;;8.73;4.50;;;3.90;99.90;;;;;;4992301;28;20173;-74
2022/01/29 07:33:31;;;;;;;7.50;4.70;;;3.90;99.90;;;;;;4992653;28;20192;-74
2022/01/29 07:35:57;;;;;;;15.47;3.20;;;3.90;99.90;;;;;;4992272;28;20400;-74
2022/01/29 07:38:23;;;;;;;3.97;3.67;;;3.90;99.90;;;;;;4992412;28;20479;-74
2022/01/29 07:40:49;;;;;;;7.50;5.30;;;3.90;99.90;;;;;;4992131;28;20400;-73
2022/01/29 07:43:15;;;;;;;8.10;3.73;;;3.90;99.90;;;;;;4992308;28;20180;-73
2022/01/29 07:45:40;;;;;;;7.50;2.93;;;3.90;99.90;;;;;;4992453;28;20806;-72
2022/01/29 07:48:06;;;;;;;6.40;4.30;;;3.90;99.90;;;;;;4992360;28;20216;-73
2022/01/29 07:50:31;;;;;;;9.50;3.97;;;4.00;99.90;;;;;;4992175;28;20238;-74
2022/01/29 07:52:59;;;;;;;4.23;3.20;;;4.00;99.90;;;;;;4992294;28;20173;-73
2022/01/29 07:55:29;;;;;;;4.30;3.70;;;4.00;99.90;;;;;;4992229;28;20235;-74
2022/01/29 07:57:55;;;;;;;7.77;5.70;;;4.10;99.90;;;;;;4992207;28;20953;-73
2022/01/29 08:00:21;;;;;;;4.70;4.30;;;4.10;99.90;;;;;;4992090;28;20443;-73
2022/01/29 08:02:46;;;;;;;7.47;6.00;;;4.10;99.90;;;;;;4995822;28;20416;-74
2022/01/29 08:05:12;;;;;;;6.50;4.07;;;4.10;99.90;;;;;;4995934;28;20231;-74
2022/01/29 08:07:38;;;;;;;6.87;3.90;;;4.10;99.90;;;;;;4995845;28;20176;-74
2022/01/29 08:10:08;;;;;;;2.80;2.57;;;4.10;99.90;;;;;;4995682;28;20316;-73
2022/01/29 08:12:34;;;;;;;10.37;5.70;;;4.20;99.90;;;;;;4995546;28;20419;-72
2022/01/29 08:15:00;;;;;;;4.73;3.87;;;4.20;99.90;;;;;;4994517;28;20830;-73
2022/01/29 08:17:26;;;;;;;6.60;2.80;;;4.20;99.90;;;;;;4995929;28;20752;-74
2022/01/29 08:19:51;;;;;;;3.57;3.27;;;4.20;99.90;;;;;;4995501;28;20482;-73
2022/01/29 08:22:17;;;;;;;4.70;3.87;;;4.20;99.90;;;;;;4995585;28;20173;-73
2022/01/29 08:24:43;;;;;;;4.30;3.90;;;4.30;99.90;;;;;;4995657;28;20168;-74
2022/01/29 08:27:08;;;;;;;6.40;3.67;;;4.30;99.90;;;;;;4995543;28;20416;-74
2022/01/29 08:29:34;;;;;;;8.00;5.60;;;4.30;99.90;;;;;;4993936;28;20211;-74
2022/01/29 08:32:00;;;;;;;4.57;4.03;;;4.30;99.90;;;;;;4995733;28;20531;-74
2022/01/29 08:34:26;;;;;;;5.87;4.13;;;4.30;99.90;;;;;;4996090;28;20227;-74
2022/01/29 08:36:52;;;;;;;4.23;3.70;;;4.30;99.90;;;;;;4995849;28;20252;-74
2022/01/29 08:39:17;;;;;;;6.10;4.13;;;4.30;99.90;;;;;;4995250;28;20965;-74
2022/01/29 08:41:43;;;;;;;3.97;3.37;;;4.30;99.90;;;;;;4995173;28;20173;-74
2022/01/29 08:44:09;;;;;;;10.03;3.40;;;4.40;99.90;;;;;;4994525;28;20183;-74
2022/01/29 08:46:34;;;;;;;8.40;3.37;;;4.40;99.90;;;;;;4995649;28;20176;-75
2022/01/29 08:48:59;;;;;;;4.90;3.37;;;4.40;99.90;;;;;;4995236;28;20208;-75
2022/01/29 08:51:25;;;;;;;9.37;4.30;;;4.50;99.90;;;;;;4995324;28;20173;-74
2022/01/29 08:53:51;;;;;;;3.50;2.93;;;4.50;99.90;;;;;;4995411;28;20173;-74
2022/01/29 08:56:16;;;;;;;3.20;2.90;;;4.50;99.90;;;;;;4995804;28;20177;-75
2022/01/29 08:58:42;;;;;;;4.83;4.20;;;4.50;99.90;;;;;;4995259;28;20205;-74
2022/01/29 09:01:09;;;;;;;3.30;3.03;;;4.60;99.90;;;;;;4992640;28;20173;-74
2022/01/29 09:03:35;;;;;;;3.03;2.77;;;4.60;99.90;;;;;;4994686;28;20805;-74
2022/01/29 09:06:01;;;;;;;5.43;4.13;;;4.60;99.90;;;;;;4994713;28;20420;-73
2022/01/29 09:08:26;;;;;;;3.87;3.47;;;4.60;99.90;;;;;;4994521;28;20819;-73
2022/01/29 09:10:56;;;;;;;7.13;5.10;;;4.60;99.90;;;;;;4994566;28;20188;-73
2022/01/29 09:13:22;;;;;;;6.60;3.90;;;4.70;99.90;;;;;;4993975;28;20216;-73
2022/01/29 09:15:48;;;;;;;3.63;3.33;;;4.70;99.90;;;;;;4994723;28;20752;-73
2022/01/29 09:18:13;;;;;;;5.63;4.63;;;4.80;99.90;;;;;;4993998;28;20237;-73
2022/01/29 09:20:39;;;;;;;3.80;3.33;;;4.80;99.90;;;;;;4994263;28;20181;-73
2022/01/29 09:23:05;;;;;;;4.00;3.30;;;4.80;99.90;;;;;;4993267;28;20161;-74
2022/01/29 09:25:31;;;;;;;6.30;4.63;;;4.80;99.90;;;;;;4994964;28;20563;-73
2022/01/29 09:27:57;;;;;;;7.97;5.07;;;4.90;99.90;;;;;;4994666;28;20447;-73
2022/01/29 09:30:23;;;;;;;6.03;4.37;;;4.90;99.90;;;;;;4994484;28;20459;-73
2022/01/29 09:32:49;;;;;;;5.37;4.90;;;4.90;99.90;;;;;;4994739;28;20227;-73
2022/01/29 09:35:15;;;;;;;2.87;2.60;;;5.00;99.90;;;;;;4993971;28;20228;-73
2022/01/29 09:37:40;;;;;;;4.70;3.43;;;5.00;99.90;;;;;;4994479;28;20689;-73
2022/01/29 09:40:06;;;;;;;7.90;5.60;;;5.00;99.90;;;;;;4994358;28;20408;-74
2022/01/29 09:42:32;;;;;;;4.93;4.20;;;5.10;99.90;;;;;;4994598;28;20706;-73
2022/01/29 09:44:58;;;;;;;6.37;4.57;;;5.10;99.90;;;;;;4994821;28;20515;-73
2022/01/29 09:47:24;;;;;;;6.23;4.70;;;5.20;99.90;;;;;;4994343;28;20176;-73
2022/01/29 09:49:51;;;;;;;6.77;4.77;;;5.20;99.90;;;;;;4994092;28;20188;-73
2022/01/29 09:52:16;;;;;;;4.00;3.60;;;5.20;99.90;;;;;;4994023;28;20401;-73
2022/01/29 09:54:47;;;;;;;4.43;3.80;;;5.20;99.90;;;;;;4994171;28;20408;-74
2022/01/29 09:57:12;;;;;;;5.77;3.27;;;5.20;99.90;;;;;;4994225;28;20343;-74
2022/01/29 09:59:38;;;;;;;7.70;6.20;;;5.30;99.90;;;;;;4994310;28;20436;-74
2022/01/29 10:02:13;;;;;;;10.07;7.03;;;5.40;99.90;;;;;;4994159;28;20185;-73
2022/01/29 10:04:55;;;;;;;7.80;5.77;;;5.40;99.90;;;;;;4994075;28;20176;-74
2022/01/29 10:07:28;;;;;;;7.73;6.97;;;5.50;99.90;;;;;;4993927;28;20927;-74
2022/01/29 10:09:55;;;;;;;11.23;5.50;;;5.50;99.90;;;;;;4993299;28;21105;-74
2022/01/29 10:12:24;;;;;;;18.10;7.10;;;5.70;99.90;;;;;;4995129;28;20412;-73
2022/01/29 10:14:53;;;;;;;9.13;5.80;;;5.80;99.90;;;;;;4994518;28;20532;-74
2022/01/29 10:17:48;;;;;;;11.53;6.43;;;5.70;99.90;;;;;;4994045;28;20755;-74
2022/01/29 10:20:26;;;;;;;8.07;5.33;;;5.70;99.90;;;;;;4994189;28;20407;-74
2022/01/29 10:22:57;;;;;;;5.43;4.67;;;5.80;99.90;;;;;;4994450;28;20929;-75
2022/01/29 10:25:28;;;;;;;7.90;5.07;;;5.80;99.90;;;;;;4995122;28;20918;-75
2022/01/29 10:28:16;;;;;;;11.03;5.60;;;5.90;99.90;;;;;;4994828;28;20436;-75
2022/01/29 10:30:47;;;;;;;7.17;6.03;;;5.90;99.90;;;;;;4994271;28;20815;-74
2022/01/29 10:33:25;;;;;;;8.40;4.03;;;6.10;99.90;;;;;;4993797;28;20404;-74
2022/01/29 10:35:57;;;;;;;7.40;5.60;;;6.20;99.90;;;;;;4993908;28;20404;-74
2022/01/29 10:38:45;;;;;;;8.43;6.23;;;6.20;99.90;;;;;;4993568;28;20431;-74
2022/01/29 10:41:16;;;;;;;8.50;4.57;;;6.10;99.90;;;;;;4985324;28;20408;-74
2022/01/29 10:43:58;;;;;;;9.63;6.00;;;6.10;99.90;;;;;;4993456;28;20400;-74
2022/01/29 10:46:29;;;;;;;8.77;6.57;;;6.40;99.90;;;;;;4993446;28;20400;-74
2022/01/29 10:48:59;;;;;;;8.40;6.23;;;6.50;99.90;;;;;;4992736;28;20962;-73
2022/01/29 10:51:26;;;;;;;10.50;5.50;;;6.30;99.90;;;;;;4993370;28;20836;-75
2022/01/29 10:53:54;;;;;;;9.50;6.40;;;6.70;99.90;;;;;;4993378;28;20554;-74
2022/01/29 10:56:21;;;;;;;7.03;5.63;;;6.50;99.90;;;;;;4993137;28;20408;-74
2022/01/29 10:58:50;;;;;;;8.30;5.70;;;6.90;99.90;;;;;;4993046;28;20463;-75
2022/01/29 11:01:21;;;;;;;5.83;4.80;;;6.60;99.90;;;;;;4992870;28;20419;-74
2022/01/29 11:03:47;;;;;;;11.03;4.27;;;6.60;99.90;;;;;;4992676;28;20949;-74
2022/01/29 11:06:19;;;;;;;7.77;3.90;;;6.40;99.90;;;;;;4993089;28;20409;-75
2022/01/29 11:08:45;;;;;;;8.70;5.60;;;6.40;99.90;;;;;;4991618;28;20200;-74
2022/01/29 11:11:12;;;;;;;10.20;6.60;;;6.50;99.90;;;;;;4992643;28;20419;-74
2022/01/29 11:13:39;;;;;;;8.23;5.73;;;6.50;99.90;;;;;;4992766;28;20192;-74
2022/01/29 11:16:05;;;;;;;6.90;5.20;;;6.50;99.90;;;;;;4992755;28;20396;-74
2022/01/29 11:18:33;;;;;;;6.13;4.40;;;6.60;99.90;;;;;;4992920;28;20765;-74
2022/01/29 11:21:00;;;;;;;6.90;4.73;;;6.50;99.90;;;;;;4991809;28;20416;-75
2022/01/29 11:23:27;;;;;;;5.30;4.10;;;6.60;99.90;;;;;;4992491;28;20420;-73
2022/01/29 11:25:55;;;;;;;9.30;8.30;;;6.70;99.90;;;;;;4993155;28;20408;-74
2022/01/29 11:28:22;;;;;;;7.47;5.50;;;6.60;99.90;;;;;;4992863;28;20452;-74
2022/01/29 11:31:11;;;;;;;8.00;5.73;;;6.70;99.90;;;;;;4992616;28;20424;-74
2022/01/29 11:33:58;;;;;;;5.73;5.20;;;6.80;99.90;;;;;;4992667;28;20939;-73
2022/01/29 11:36:46;;;;;;;8.10;6.37;;;6.80;99.90;;;;;;4991874;28;20396;-74
2022/01/29 11:39:23;;;;;;;4.40;3.90;;;6.80;99.90;;;;;;4983823;28;21019;-73
2022/01/29 11:42:14;;;;;;;4.50;3.70;;;6.80;99.90;;;;;;4991991;28;20537;-72
2022/01/29 11:44:41;;;;;;;5.80;4.67;;;6.80;99.90;;;;;;4989531;28;20492;-74
2022/01/29 11:47:25;;;;;;;5.20;4.30;;;6.90;99.90;;;;;;4992063;28;20417;-73
2022/01/29 11:49:52;;;;;;;4.97;4.10;;;6.90;99.90;;;;;;4987753;28;20466;-73
2022/01/29 11:52:22;;;;;;;7.90;4.73;;;7.00;99.90;;;;;;4992024;28;20486;-73
2022/01/29 11:55:31;;;;;;;6.40;3.77;;;7.00;99.90;;;;;;4992131;28;20767;-73
2022/01/29 11:58:16;;;;;;;6.43;5.80;;;7.00;99.90;;;;;;4983256;28;20455;-73
2022/01/29 12:00:45;;;;;;;5.40;4.23;;;7.10;99.90;;;;;;4991840;28;20411;-73
2022/01/29 12:03:51;;;;;;;5.17;4.70;;;7.10;99.90;;;;;;4991614;28;20427;-73
2022/01/29 12:06:22;;;;;;;5.30;4.70;;;7.10;99.90;;;;;;4980895;28;20412;-73
2022/01/29 12:09:03;;;;;;;8.27;5.37;;;7.10;99.90;;;;;;4991245;28;20462;-73
2022/01/29 12:11:29;;;;;;;6.80;3.87;;;7.20;99.90;;;;;;4989993;28;20506;-74
2022/01/29 12:14:13;;;;;;;7.27;4.57;;;7.20;99.90;;;;;;4994127;28;20413;-74
2022/01/29 12:16:49;;;;;;;5.47;3.63;;;7.30;99.90;;;;;;4991921;28;20764;-73
2022/01/29 12:19:37;;;;;;;7.33;4.40;;;7.30;99.90;;;;;;4992020;28;20420;-74
2022/01/29 12:22:23;;;;;;;4.87;4.13;;;7.30;99.90;;;;;;4990183;28;20400;-73
2022/01/29 12:24:51;;;;;;;8.70;3.30;;;7.30;99.90;;;;;;4998069;28;20465;-72
2022/01/29 12:27:16;;;;;;;7.60;5.47;;;7.40;99.90;;;;;;4993581;28;20495;-75
2022/01/29 12:29:42;;;;;;;5.00;3.70;;;7.40;99.90;;;;;;4993231;28;20588;-73
2022/01/29 12:32:09;;;;;;;8.23;4.87;;;7.40;99.90;;;;;;4992974;28;20649;-73
2022/01/29 12:34:34;;;;;;;9.20;5.63;;;7.50;99.90;;;;;;4998117;28;20173;-74
2022/01/29 12:37:08;;;;;;;5.97;3.97;;;7.50;99.90;;;;;;4992902;28;20799;-74
2022/01/29 12:39:35;;;;;;;5.20;3.90;;;7.60;99.90;;;;;;4993182;28;20201;-73
2022/01/29 12:42:06;;;;;;;3.97;2.97;;;7.60;99.90;;;;;;4991456;28;20503;-74
2022/01/29 12:44:32;;;;;;;3.73;2.60;;;7.60;99.90;;;;;;4990118;28;20401;-73
2022/01/29 12:46:58;;;;;;;3.70;2.67;;;7.60;99.90;;;;;;4993367;28;20435;-74
2022/01/29 12:49:23;;;;;;;5.97;4.07;;;7.60;99.90;;;;;;4993521;28;20459;-73
2022/01/29 12:51:55;;;;;;;4.90;2.47;;;7.70;99.90;;;;;;4995345;28;20181;-73
2022/01/29 12:54:21;;;;;;;4.53;3.60;;;7.70;99.90;;;;;;4998403;28;20574;-73
2022/01/29 12:56:47;;;;;;;4.13;3.10;;;7.80;99.90;;;;;;4997484;28;20421;-74
2022/01/29 12:59:14;;;;;;;3.70;2.80;;;7.80;99.90;;;;;;4994699;28;20432;-73
2022/01/29 13:01:42;;;;;;;4.73;3.13;;;7.90;99.90;;;;;;4996229;28;20609;-73
2022/01/29 13:04:13;;;;;;;5.10;4.60;;;7.90;99.90;;;;;;4995612;28;20412;-74
2022/01/29 13:06:40;;;;;;;2.33;2.00;;;8.00;99.90;;;;;;5006368;28;20439;-73
2022/01/29 13:09:15;;;;;;;2.87;2.10;;;8.00;99.90;;;;;;4997448;28;20483;-73
2022/01/29 13:11:41;;;;;;;4.20;2.93;;;8.00;99.90;;;;;;4995113;28;20400;-72